Portada
METAR-TAF:

METAR-TAF

Aeropuertos :

Bangkok, Tailandia

Aeropuerto Internacional Don Mueang

latitud: 13-54-45N, longitud: 100-36-24E, altitud: 4 m

Observación

El informe se hizo hace 15 minutos, a las 23:00 UTC
Viento calma
Temperatura 29°C
Humedad 84%
Presión 1009 hPa
Visibilidad 10 km o más
Escasas nubes a una altura de 2000 ft
Nubes dispersas a una altura de 3000 ft

METAR: VTBD 212300Z 00000KT 9999 FEW020 SCT030 29/26 Q1009 NOSIG

Hora: 06:15 (23:15 UTC)

Pronóstico

El informe se hizo hace 6 horas y 15 minutos, a las 17:00 UTC
Pronóstico válido del 21 a las 18 UTC al 22 a las 24 UTC
Viento 5 kt del sur
Visibilidad 10 km o más
Escasas nubes a una altura de 2500 ft
Evolucionando progresivamente
del 21 a las 20 UTC al 21 a las 22 UTC
Viento 5 kt del sureste
Evolucionando progresivamente
del 22 a las 01 UTC al 22 a las 03 UTC
Viento 8 kt del sur

TAF: VTBD 211700Z 2118/2224 19005KT 9999 FEW025 BECMG 2120/2122 13005KT BECMG 2201/2203 19008KT

Observaciones y pronósticos meteorológicos de más de 4000 aeropuertos (mensajes METAR y TAF).

Los puntos amarillos y rojos representan las estaciones disponibles.

Ponga el ratón en el punto deseado para ver el nombre de la estación.

Haga clic para ver las observaciones y los pronósticos meteorológicos.

Para cambiar el mapa : haga clic en los botones verdes con una cruz de color negro para hacer un zoom, en el botón verde con un guión para alejar o en las flechas verdes para mapas adyacentes.


METAR-TAF: